Exceptional Flight Instruction

Our Team

Safe Aircraft

Our Rentals

Outstanding Customer Service

Contact Us

AeroCamp 2017

AeroCamp Times (M-F 9AM-3PM)
June 19-23, 2017 – OPEN
July 10-14, 2017 – OPEN
$649/wk per Cadet (Roster size limited)

AeroCamp 2.0 Times (M-T 9AM-3PM)
June 26-29, 2017 – OPEN
July 17-20, 2017 – OPEN
$749/wk per Cadet (Roster size limited)

AeroCamp 3.0 Times (M-W – INCLUDES KITTY HAWK!)
June 12-14, 2017 – OPEN
August 7-9, 2017 – OPEN
$849/wk per Cadet (Roster size limited)

AeroCamp 4.0 Times (INCLUDES OSHKOSH!!)

July 24-28, 2017 - OPEN

Price TBD (Roster size limited)

About Us

Triad Aviation Academy, LLC


1030 PTI Drive
Greensboro, NC 27409

Phone: (336) 369-2804
Fax: (336) 664-6942

Weather

Available data for KGSO from the past 2 hours
GREENSBORO, NC
Metar
KGSO 282154Z 11005KT 10SM -TSRA SCT040CB BKN075 BKN200 23/21 A2989 RMK AO2 PK WND 26033/2102 RAE24B52 SLP111 OCNL LTGICCG SW TS SW MOV NE P0030 T02280211

21:54 UTC

Wind: 110° 5kt

Visibility: 10 SM

Sky: SCT 4000 ft

Temp: 23 deg C / 73.4 deg F

Dewpoint: 21 deg C / 69.8 deg F

Pressure: 29.89 inHg

TAF
KGSO 282156Z 2822/2918 11004KT P6SM TS SCT020 BKN035CB FM290200 13005KT 5SM -SHRA SCT020 BKN040 FM290700 12002KT 4SM BR BKN003 FM291500 14004KT P6SM SCT050